sensor_id;sensor_type;location;lat;lon;timestamp;P1;durP1;ratioP1;P2;durP2;ratioP2
8359;SDS011;4217;48.762;11.428;2022-12-07T00:09:18;8.50;;;8.00;;
8359;SDS011;4217;48.762;11.428;2022-12-07T00:19:20;7.93;;;7.50;;
8359;SDS011;4217;48.762;11.428;2022-12-07T00:29:22;8.20;;;7.80;;
8359;SDS011;4217;48.762;11.428;2022-12-07T00:39:24;9.37;;;8.87;;
8359;SDS011;4217;48.762;11.428;2022-12-07T00:49:25;9.03;;;8.53;;
8359;SDS011;4217;48.762;11.428;2022-12-07T00:59:27;8.00;;;7.60;;
8359;SDS011;4217;48.762;11.428;2022-12-07T01:09:28;8.43;;;8.03;;
8359;SDS011;4217;48.762;11.428;2022-12-07T01:19:30;9.17;;;8.67;;
8359;SDS011;4217;48.762;11.428;2022-12-07T01:29:31;8.20;;;7.80;;
8359;SDS011;4217;48.762;11.428;2022-12-07T01:39:33;9.27;;;8.67;;
8359;SDS011;4217;48.762;11.428;2022-12-07T01:49:42;10.10;;;9.50;;
8359;SDS011;4217;48.762;11.428;2022-12-07T01:59:48;10.30;;;9.70;;
8359;SDS011;4217;48.762;11.428;2022-12-07T02:09:52;10.13;;;9.53;;
8359;SDS011;4217;48.762;11.428;2022-12-07T02:30:40;10.13;;;9.53;;
8359;SDS011;4217;48.762;11.428;2022-12-07T02:40:57;10.80;;;10.13;;
8359;SDS011;4217;48.762;11.428;2022-12-07T02:51:09;10.60;;;10.00;;
8359;SDS011;4217;48.762;11.428;2022-12-07T03:01:24;11.33;;;10.63;;
8359;SDS011;4217;48.762;11.428;2022-12-07T03:11:48;12.47;;;11.70;;
8359;SDS011;4217;48.762;11.428;2022-12-07T03:21:55;11.90;;;11.20;;
8359;SDS011;4217;48.762;11.428;2022-12-07T03:32:21;13.43;;;12.53;;
8359;SDS011;4217;48.762;11.428;2022-12-07T03:42:28;14.17;;;13.27;;
8359;SDS011;4217;48.762;11.428;2022-12-07T03:52:33;12.73;;;11.93;;
8359;SDS011;4217;48.762;11.428;2022-12-07T04:02:41;13.27;;;12.47;;
8359;SDS011;4217;48.762;11.428;2022-12-07T04:12:44;14.30;;;13.40;;
8359;SDS011;4217;48.762;11.428;2022-12-07T04:22:46;15.30;;;14.30;;
8359;SDS011;4217;48.762;11.428;2022-12-07T04:32:47;14.93;;;13.90;;
8359;SDS011;4217;48.762;11.428;2022-12-07T04:42:49;15.20;;;14.23;;
8359;SDS011;4217;48.762;11.428;2022-12-07T04:52:50;14.57;;;13.67;;
8359;SDS011;4217;48.762;11.428;2022-12-07T05:02:52;15.57;;;14.57;;
8359;SDS011;4217;48.762;11.428;2022-12-07T05:12:53;15.17;;;14.17;;
8359;SDS011;4217;48.762;11.428;2022-12-07T05:22:55;15.60;;;14.50;;
8359;SDS011;4217;48.762;11.428;2022-12-07T05:32:56;15.50;;;14.30;;
8359;SDS011;4217;48.762;11.428;2022-12-07T05:42:58;18.57;;;17.33;;
8359;SDS011;4217;48.762;11.428;2022-12-07T05:53:05;17.10;;;15.63;;
8359;SDS011;4217;48.762;11.428;2022-12-07T06:03:06;18.90;;;17.43;;
8359;SDS011;4217;48.762;11.428;2022-12-07T06:13:08;17.20;;;15.70;;
8359;SDS011;4217;48.762;11.428;2022-12-07T06:23:10;18.20;;;16.50;;
8359;SDS011;4217;48.762;11.428;2022-12-07T06:33:12;19.40;;;17.63;;
8359;SDS011;4217;48.762;11.428;2022-12-07T06:43:14;18.77;;;17.13;;
8359;SDS011;4217;48.762;11.428;2022-12-07T06:53:16;19.70;;;18.00;;
8359;SDS011;4217;48.762;11.428;2022-12-07T07:03:17;20.80;;;18.77;;
8359;SDS011;4217;48.762;11.428;2022-12-07T07:13:19;20.20;;;18.40;;
8359;SDS011;4217;48.762;11.428;2022-12-07T07:23:21;20.27;;;18.23;;
8359;SDS011;4217;48.762;11.428;2022-12-07T07:33:22;17.33;;;15.83;;
8359;SDS011;4217;48.762;11.428;2022-12-07T07:43:24;19.60;;;17.83;;
8359;SDS011;4217;48.762;11.428;2022-12-07T07:53:27;17.10;;;15.87;;
8359;SDS011;4217;48.762;11.428;2022-12-07T08:03:28;13.93;;;12.93;;
8359;SDS011;4217;48.762;11.428;2022-12-07T08:13:30;14.37;;;13.27;;
8359;SDS011;4217;48.762;11.428;2022-12-07T08:23:32;13.80;;;12.80;;
8359;SDS011;4217;48.762;11.428;2022-12-07T08:33:40;14.43;;;13.40;;
8359;SDS011;4217;48.762;11.428;2022-12-07T08:43:42;15.83;;;14.53;;
8359;SDS011;4217;48.762;11.428;2022-12-07T08:53:43;14.20;;;13.10;;
8359;SDS011;4217;48.762;11.428;2022-12-07T09:03:45;13.07;;;12.13;;
8359;SDS011;4217;48.762;11.428;2022-12-07T09:13:47;14.80;;;13.70;;
8359;SDS011;4217;48.762;11.428;2022-12-07T09:23:49;13.20;;;12.33;;
8359;SDS011;4217;48.762;11.428;2022-12-07T09:33:57;13.97;;;12.77;;
8359;SDS011;4217;48.762;11.428;2022-12-07T09:44:03;14.83;;;13.73;;
8359;SDS011;4217;48.762;11.428;2022-12-07T09:54:07;15.17;;;13.97;;
8359;SDS011;4217;48.762;11.428;2022-12-07T10:04:18;14.60;;;13.53;;
8359;SDS011;4217;48.762;11.428;2022-12-07T10:14:25;13.90;;;13.00;;
8359;SDS011;4217;48.762;11.428;2022-12-07T10:24:49;13.67;;;12.77;;
8359;SDS011;4217;48.762;11.428;2022-12-07T10:34:51;13.87;;;12.97;;
8359;SDS011;4217;48.762;11.428;2022-12-07T10:45:19;12.90;;;12.07;;
8359;SDS011;4217;48.762;11.428;2022-12-07T11:36:54;10.67;;;9.97;;
8359;SDS011;4217;48.762;11.428;2022-12-07T11:57:10;17.30;;;16.30;;
8359;SDS011;4217;48.762;11.428;2022-12-07T12:07:24;11.83;;;10.93;;
8359;SDS011;4217;48.762;11.428;2022-12-07T12:18:06;12.20;;;11.40;;
8359;SDS011;4217;48.762;11.428;2022-12-07T12:28:27;13.13;;;12.33;;
8359;SDS011;4217;48.762;11.428;2022-12-07T12:38:32;11.60;;;10.80;;
8359;SDS011;4217;48.762;11.428;2022-12-07T12:48:38;12.20;;;11.30;;
8359;SDS011;4217;48.762;11.428;2022-12-07T12:58:40;11.43;;;10.70;;
8359;SDS011;4217;48.762;11.428;2022-12-07T13:08:44;12.33;;;11.43;;
8359;SDS011;4217;48.762;11.428;2022-12-07T13:18:46;12.83;;;11.57;;
8359;SDS011;4217;48.762;11.428;2022-12-07T13:28:49;14.10;;;13.20;;
8359;SDS011;4217;48.762;11.428;2022-12-07T13:38:59;13.73;;;12.77;;
8359;SDS011;4217;48.762;11.428;2022-12-07T13:49:24;12.57;;;11.77;;
8359;SDS011;4217;48.762;11.428;2022-12-07T13:59:27;12.10;;;11.30;;
8359;SDS011;4217;48.762;11.428;2022-12-07T14:09:31;12.53;;;11.70;;
8359;SDS011;4217;48.762;11.428;2022-12-07T14:19:44;11.17;;;10.47;;
8359;SDS011;4217;48.762;11.428;2022-12-07T14:29:53;11.17;;;10.43;;
8359;SDS011;4217;48.762;11.428;2022-12-07T14:39:56;10.50;;;9.80;;
8359;SDS011;4217;48.762;11.428;2022-12-07T14:49:58;10.77;;;10.17;;
8359;SDS011;4217;48.762;11.428;2022-12-07T15:00:06;12.13;;;11.10;;
8359;SDS011;4217;48.762;11.428;2022-12-07T15:10:18;11.53;;;10.63;;
8359;SDS011;4217;48.762;11.428;2022-12-07T15:20:24;11.03;;;10.23;;
8359;SDS011;4217;48.762;11.428;2022-12-07T15:30:26;10.47;;;9.77;;
8359;SDS011;4217;48.762;11.428;2022-12-07T15:40:28;10.07;;;9.20;;
8359;SDS011;4217;48.762;11.428;2022-12-07T15:50:32;11.33;;;10.53;;
8359;SDS011;4217;48.762;11.428;2022-12-07T16:00:34;10.30;;;9.60;;
8359;SDS011;4217;48.762;11.428;2022-12-07T16:10:35;11.23;;;10.43;;
8359;SDS011;4217;48.762;11.428;2022-12-07T16:20:37;11.33;;;10.53;;
8359;SDS011;4217;48.762;11.428;2022-12-07T16:30:39;11.17;;;10.37;;
8359;SDS011;4217;48.762;11.428;2022-12-07T16:40:40;10.60;;;9.90;;
8359;SDS011;4217;48.762;11.428;2022-12-07T16:50:42;11.20;;;10.20;;
8359;SDS011;4217;48.762;11.428;2022-12-07T17:00:51;9.97;;;9.27;;
8359;SDS011;4217;48.762;11.428;2022-12-07T17:10:52;11.10;;;10.30;;
8359;SDS011;4217;48.762;11.428;2022-12-07T17:20:54;11.60;;;10.80;;
8359;SDS011;4217;48.762;11.428;2022-12-07T17:31:03;13.63;;;12.37;;
8359;SDS011;4217;48.762;11.428;2022-12-07T17:41:10;11.03;;;10.23;;
8359;SDS011;4217;48.762;11.428;2022-12-07T17:51:13;10.13;;;9.43;;
8359;SDS011;4217;48.762;11.428;2022-12-07T18:01:34;9.67;;;9.00;;
8359;SDS011;4217;48.762;11.428;2022-12-07T18:11:36;10.23;;;9.53;;
8359;SDS011;4217;48.762;11.428;2022-12-07T18:21:38;9.07;;;8.33;;
8359;SDS011;4217;48.762;11.428;2022-12-07T18:31:40;11.50;;;10.77;;
8359;SDS011;4217;48.762;11.428;2022-12-07T18:41:42;12.23;;;11.43;;
8359;SDS011;4217;48.762;11.428;2022-12-07T18:51:43;13.37;;;12.27;;
8359;SDS011;4217;48.762;11.428;2022-12-07T19:01:49;13.33;;;12.30;;
8359;SDS011;4217;48.762;11.428;2022-12-07T19:11:53;13.40;;;12.50;;
8359;SDS011;4217;48.762;11.428;2022-12-07T19:21:56;12.93;;;12.13;;
8359;SDS011;4217;48.762;11.428;2022-12-07T19:31:58;13.83;;;12.93;;
8359;SDS011;4217;48.762;11.428;2022-12-07T19:42:02;13.03;;;12.17;;
8359;SDS011;4217;48.762;11.428;2022-12-07T19:52:05;13.73;;;12.70;;
8359;SDS011;4217;48.762;11.428;2022-12-07T20:02:10;14.47;;;13.33;;
8359;SDS011;4217;48.762;11.428;2022-12-07T20:12:13;12.90;;;12.00;;
8359;SDS011;4217;48.762;11.428;2022-12-07T20:22:33;12.23;;;11.43;;
8359;SDS011;4217;48.762;11.428;2022-12-07T20:32:35;14.47;;;13.47;;
8359;SDS011;4217;48.762;11.428;2022-12-07T20:42:36;13.80;;;12.80;;
8359;SDS011;4217;48.762;11.428;2022-12-07T20:52:38;13.53;;;12.07;;
8359;SDS011;4217;48.762;11.428;2022-12-07T21:02:40;13.13;;;12.13;;
8359;SDS011;4217;48.762;11.428;2022-12-07T21:12:41;13.50;;;12.50;;
8359;SDS011;4217;48.762;11.428;2022-12-07T21:22:43;15.17;;;13.93;;
8359;SDS011;4217;48.762;11.428;2022-12-07T21:32:44;15.87;;;14.67;;
8359;SDS011;4217;48.762;11.428;2022-12-07T21:42:46;14.30;;;13.40;;
8359;SDS011;4217;48.762;11.428;2022-12-07T21:52:49;13.50;;;12.60;;
8359;SDS011;4217;48.762;11.428;2022-12-07T22:02:50;14.20;;;13.30;;
8359;SDS011;4217;48.762;11.428;2022-12-07T22:12:55;15.83;;;14.73;;
8359;SDS011;4217;48.762;11.428;2022-12-07T22:22:57;15.40;;;14.30;;
8359;SDS011;4217;48.762;11.428;2022-12-07T22:32:59;15.83;;;14.73;;
8359;SDS011;4217;48.762;11.428;2022-12-07T22:43:01;17.10;;;15.93;;
8359;SDS011;4217;48.762;11.428;2022-12-07T22:53:02;15.87;;;14.87;;
8359;SDS011;4217;48.762;11.428;2022-12-07T23:03:05;15.60;;;14.60;;
8359;SDS011;4217;48.762;11.428;2022-12-07T23:13:08;13.57;;;12.57;;
8359;SDS011;4217;48.762;11.428;2022-12-07T23:23:29;15.67;;;14.57;;
8359;SDS011;4217;48.762;11.428;2022-12-07T23:33:31;13.73;;;12.73;;
8359;SDS011;4217;48.762;11.428;2022-12-07T23:43:34;15.23;;;14.13;;
8359;SDS011;4217;48.762;11.428;2022-12-07T23:53:37;15.30;;;14.23;;
